sensor_id;sensor_type;location;lat;lon;timestamp;P1;durP1;ratioP1;P2;durP2;ratioP2
69912;SDS011;57198;52.082;5.108;2023-07-20T00:01:00;5.38;;;2.97;;
69912;SDS011;57198;52.082;5.108;2023-07-20T00:03:28;3.10;;;2.80;;
69912;SDS011;57198;52.082;5.108;2023-07-20T00:05:55;3.10;;;2.25;;
69912;SDS011;57198;52.082;5.108;2023-07-20T00:08:23;2.97;;;2.50;;
69912;SDS011;57198;52.082;5.108;2023-07-20T00:10:50;4.50;;;2.50;;
69912;SDS011;57198;52.082;5.108;2023-07-20T00:13:17;3.33;;;2.88;;
69912;SDS011;57198;52.082;5.108;2023-07-20T00:15:45;5.17;;;2.73;;
69912;SDS011;57198;52.082;5.108;2023-07-20T00:18:13;2.83;;;2.50;;
69912;SDS011;57198;52.082;5.108;2023-07-20T00:20:40;4.43;;;2.40;;
69912;SDS011;57198;52.082;5.108;2023-07-20T00:23:07;2.88;;;2.45;;
69912;SDS011;57198;52.082;5.108;2023-07-20T00:25:35;2.53;;;2.33;;
69912;SDS011;57198;52.082;5.108;2023-07-20T00:28:03;2.33;;;2.13;;
69912;SDS011;57198;52.082;5.108;2023-07-20T00:30:30;3.35;;;2.40;;
69912;SDS011;57198;52.082;5.108;2023-07-20T00:32:58;2.40;;;2.20;;
69912;SDS011;57198;52.082;5.108;2023-07-20T00:35:25;2.65;;;2.15;;
69912;SDS011;57198;52.082;5.108;2023-07-20T00:37:53;2.30;;;2.08;;
69912;SDS011;57198;52.082;5.108;2023-07-20T00:40:20;2.00;;;1.80;;
69912;SDS011;57198;52.082;5.108;2023-07-20T00:42:48;2.80;;;2.30;;
69912;SDS011;57198;52.082;5.108;2023-07-20T00:45:22;2.35;;;1.70;;
69912;SDS011;57198;52.082;5.108;2023-07-20T00:47:50;1.50;;;1.40;;
69912;SDS011;57198;52.082;5.108;2023-07-20T00:50:18;2.08;;;1.77;;
69912;SDS011;57198;52.082;5.108;2023-07-20T00:52:46;1.43;;;1.20;;
69912;SDS011;57198;52.082;5.108;2023-07-20T00:55:13;1.85;;;1.50;;
69912;SDS011;57198;52.082;5.108;2023-07-20T00:57:41;0.90;;;0.90;;
69912;SDS011;57198;52.082;5.108;2023-07-20T01:00:08;0.90;;;0.90;;
69912;SDS011;57198;52.082;5.108;2023-07-20T01:02:36;1.20;;;1.08;;
69912;SDS011;57198;52.082;5.108;2023-07-20T01:05:04;1.40;;;0.80;;
69912;SDS011;57198;52.082;5.108;2023-07-20T01:07:34;0.95;;;0.60;;
69912;SDS011;57198;52.082;5.108;2023-07-20T01:10:05;1.20;;;1.10;;
69912;SDS011;57198;52.082;5.108;2023-07-20T01:12:42;1.27;;;0.95;;
69912;SDS011;57198;52.082;5.108;2023-07-20T01:15:10;1.15;;;0.80;;
69912;SDS011;57198;52.082;5.108;2023-07-20T01:17:38;1.00;;;1.00;;
69912;SDS011;57198;52.082;5.108;2023-07-20T01:20:06;1.05;;;0.80;;
69912;SDS011;57198;52.082;5.108;2023-07-20T01:25:24;1.13;;;1.00;;
69912;SDS011;57198;52.082;5.108;2023-07-20T01:33:06;1.98;;;1.33;;
69912;SDS011;57198;52.082;5.108;2023-07-20T01:35:35;1.67;;;0.90;;
69912;SDS011;57198;52.082;5.108;2023-07-20T01:38:04;2.30;;;1.55;;
69912;SDS011;57198;52.082;5.108;2023-07-20T01:40:34;1.83;;;1.45;;
69912;SDS011;57198;52.082;5.108;2023-07-20T01:43:03;2.30;;;1.00;;
69912;SDS011;57198;52.082;5.108;2023-07-20T01:45:30;1.17;;;1.08;;
69912;SDS011;57198;52.082;5.108;2023-07-20T01:47:59;1.48;;;1.38;;
69912;SDS011;57198;52.082;5.108;2023-07-20T01:50:28;1.38;;;1.27;;
69912;SDS011;57198;52.082;5.108;2023-07-20T01:52:57;1.60;;;1.10;;
69912;SDS011;57198;52.082;5.108;2023-07-20T01:55:25;1.40;;;1.00;;
69912;SDS011;57198;52.082;5.108;2023-07-20T01:57:54;1.25;;;1.15;;
69912;SDS011;57198;52.082;5.108;2023-07-20T02:00:22;1.35;;;1.25;;
69912;SDS011;57198;52.082;5.108;2023-07-20T02:02:52;1.73;;;1.20;;
69912;SDS011;57198;52.082;5.108;2023-07-20T02:05:19;2.15;;;1.20;;
69912;SDS011;57198;52.082;5.108;2023-07-20T02:07:47;1.80;;;1.30;;
69912;SDS011;57198;52.082;5.108;2023-07-20T02:10:18;1.77;;;1.00;;
69912;SDS011;57198;52.082;5.108;2023-07-20T02:12:47;1.88;;;1.30;;
69912;SDS011;57198;52.082;5.108;2023-07-20T02:15:14;1.40;;;1.30;;
69912;SDS011;57198;52.082;5.108;2023-07-20T02:17:43;1.45;;;1.35;;
69912;SDS011;57198;52.082;5.108;2023-07-20T02:20:10;1.53;;;1.43;;
69912;SDS011;57198;52.082;5.108;2023-07-20T02:22:38;1.85;;;1.40;;
69912;SDS011;57198;52.082;5.108;2023-07-20T02:25:06;1.92;;;1.60;;
69912;SDS011;57198;52.082;5.108;2023-07-20T02:27:34;1.73;;;1.63;;
69912;SDS011;57198;52.082;5.108;2023-07-20T02:30:02;2.00;;;1.58;;
69912;SDS011;57198;52.082;5.108;2023-07-20T02:32:29;2.27;;;1.53;;
69912;SDS011;57198;52.082;5.108;2023-07-20T02:34:58;1.75;;;1.65;;
69912;SDS011;57198;52.082;5.108;2023-07-20T02:37:26;1.95;;;1.77;;
69912;SDS011;57198;52.082;5.108;2023-07-20T02:39:54;2.33;;;1.88;;
69912;SDS011;57198;52.082;5.108;2023-07-20T02:42:21;1.90;;;1.80;;
69912;SDS011;57198;52.082;5.108;2023-07-20T02:44:50;2.47;;;1.67;;
69912;SDS011;57198;52.082;5.108;2023-07-20T02:47:18;1.90;;;1.80;;
69912;SDS011;57198;52.082;5.108;2023-07-20T02:49:46;2.30;;;2.10;;
69912;SDS011;57198;52.082;5.108;2023-07-20T02:52:13;1.98;;;1.77;;
69912;SDS011;57198;52.082;5.108;2023-07-20T02:54:40;1.88;;;1.75;;
69912;SDS011;57198;52.082;5.108;2023-07-20T02:57:08;2.57;;;2.33;;
69912;SDS011;57198;52.082;5.108;2023-07-20T02:59:36;3.13;;;2.47;;
69912;SDS011;57198;52.082;5.108;2023-07-20T03:02:04;3.55;;;2.45;;
69912;SDS011;57198;52.082;5.108;2023-07-20T03:04:31;4.80;;;2.80;;
69912;SDS011;57198;52.082;5.108;2023-07-20T03:06:59;3.03;;;2.72;;
69912;SDS011;57198;52.082;5.108;2023-07-20T03:09:26;4.80;;;3.37;;
69912;SDS011;57198;52.082;5.108;2023-07-20T03:11:53;2.58;;;2.38;;
69912;SDS011;57198;52.082;5.108;2023-07-20T03:14:21;7.38;;;3.35;;
69912;SDS011;57198;52.082;5.108;2023-07-20T03:16:50;4.43;;;2.80;;
69912;SDS011;57198;52.082;5.108;2023-07-20T03:19:17;3.28;;;2.78;;
69912;SDS011;57198;52.082;5.108;2023-07-20T03:21:45;2.83;;;2.63;;
69912;SDS011;57198;52.082;5.108;2023-07-20T03:24:12;3.00;;;2.80;;
69912;SDS011;57198;52.082;5.108;2023-07-20T03:26:40;3.53;;;3.22;;
69912;SDS011;57198;52.082;5.108;2023-07-20T03:29:07;3.00;;;2.80;;
69912;SDS011;57198;52.082;5.108;2023-07-20T03:31:35;3.60;;;3.30;;
69912;SDS011;57198;52.082;5.108;2023-07-20T03:34:03;3.43;;;3.23;;
69912;SDS011;57198;52.082;5.108;2023-07-20T03:36:31;3.67;;;3.38;;
69912;SDS011;57198;52.082;5.108;2023-07-20T03:38:59;3.20;;;2.92;;
69912;SDS011;57198;52.082;5.108;2023-07-20T03:41:27;3.63;;;3.33;;
69912;SDS011;57198;52.082;5.108;2023-07-20T03:43:55;4.32;;;3.47;;
69912;SDS011;57198;52.082;5.108;2023-07-20T03:46:23;4.03;;;3.63;;
69912;SDS011;57198;52.082;5.108;2023-07-20T03:48:51;5.13;;;3.80;;
69912;SDS011;57198;52.082;5.108;2023-07-20T03:51:18;3.75;;;3.45;;
69912;SDS011;57198;52.082;5.108;2023-07-20T03:53:46;3.67;;;3.38;;
69912;SDS011;57198;52.082;5.108;2023-07-20T03:56:14;3.58;;;3.25;;
69912;SDS011;57198;52.082;5.108;2023-07-20T03:58:41;3.37;;;3.10;;
69912;SDS011;57198;52.082;5.108;2023-07-20T04:01:12;4.07;;;3.70;;
69912;SDS011;57198;52.082;5.108;2023-07-20T04:03:40;3.63;;;3.25;;
69912;SDS011;57198;52.082;5.108;2023-07-20T04:06:08;6.22;;;3.80;;
69912;SDS011;57198;52.082;5.108;2023-07-20T04:08:36;4.55;;;4.15;;
69912;SDS011;57198;52.082;5.108;2023-07-20T04:11:04;4.43;;;3.53;;
69912;SDS011;57198;52.082;5.108;2023-07-20T04:13:31;5.05;;;3.40;;
69912;SDS011;57198;52.082;5.108;2023-07-20T04:16:02;3.97;;;3.67;;
69912;SDS011;57198;52.082;5.108;2023-07-20T04:18:29;4.13;;;3.80;;
69912;SDS011;57198;52.082;5.108;2023-07-20T04:20:57;4.45;;;3.92;;
69912;SDS011;57198;52.082;5.108;2023-07-20T04:23:24;4.03;;;3.73;;
69912;SDS011;57198;52.082;5.108;2023-07-20T04:25:52;4.63;;;3.70;;
69912;SDS011;57198;52.082;5.108;2023-07-20T04:28:19;5.47;;;3.40;;
69912;SDS011;57198;52.082;5.108;2023-07-20T04:30:48;5.15;;;4.03;;
69912;SDS011;57198;52.082;5.108;2023-07-20T04:33:21;4.10;;;3.67;;
69912;SDS011;57198;52.082;5.108;2023-07-20T04:38:19;3.35;;;3.05;;
69912;SDS011;57198;52.082;5.108;2023-07-20T04:40:54;4.00;;;3.70;;
69912;SDS011;57198;52.082;5.108;2023-07-20T04:43:21;5.10;;;3.80;;
69912;SDS011;57198;52.082;5.108;2023-07-20T04:45:49;4.10;;;3.72;;
69912;SDS011;57198;52.082;5.108;2023-07-20T04:48:17;8.03;;;3.10;;
69912;SDS011;57198;52.082;5.108;2023-07-20T04:50:49;3.30;;;2.97;;
69912;SDS011;57198;52.082;5.108;2023-07-20T04:53:16;3.17;;;2.88;;
69912;SDS011;57198;52.082;5.108;2023-07-20T04:55:48;5.13;;;3.55;;
69912;SDS011;57198;52.082;5.108;2023-07-20T04:58:20;4.80;;;3.47;;
69912;SDS011;57198;52.082;5.108;2023-07-20T05:00:48;2.73;;;2.53;;
69912;SDS011;57198;52.082;5.108;2023-07-20T05:03:16;4.20;;;2.83;;
69912;SDS011;57198;52.082;5.108;2023-07-20T05:05:44;3.03;;;2.67;;
69912;SDS011;57198;52.082;5.108;2023-07-20T05:08:15;3.25;;;2.22;;
69912;SDS011;57198;52.082;5.108;2023-07-20T05:10:42;3.55;;;2.20;;
69912;SDS011;57198;52.082;5.108;2023-07-20T05:13:10;2.57;;;2.37;;
69912;SDS011;57198;52.082;5.108;2023-07-20T05:15:37;2.33;;;2.13;;
69912;SDS011;57198;52.082;5.108;2023-07-20T05:18:08;2.20;;;1.90;;
69912;SDS011;57198;52.082;5.108;2023-07-20T05:20:36;2.95;;;1.73;;
69912;SDS011;57198;52.082;5.108;2023-07-20T05:23:03;3.50;;;2.05;;
69912;SDS011;57198;52.082;5.108;2023-07-20T05:25:31;1.73;;;1.50;;
69912;SDS011;57198;52.082;5.108;2023-07-20T05:27:59;2.90;;;1.30;;
69912;SDS011;57198;52.082;5.108;2023-07-20T05:30:26;6.32;;;1.90;;
69912;SDS011;57198;52.082;5.108;2023-07-20T05:32:55;2.25;;;1.33;;
69912;SDS011;57198;52.082;5.108;2023-07-20T05:35:23;1.55;;;1.35;;
69912;SDS011;57198;52.082;5.108;2023-07-20T05:37:50;1.90;;;1.30;;
69912;SDS011;57198;52.082;5.108;2023-07-20T05:40:18;3.22;;;1.02;;
69912;SDS011;57198;52.082;5.108;2023-07-20T05:42:46;1.75;;;1.20;;
69912;SDS011;57198;52.082;5.108;2023-07-20T05:45:16;1.10;;;1.00;;
69912;SDS011;57198;52.082;5.108;2023-07-20T05:50:47;1.47;;;1.00;;
69912;SDS011;57198;52.082;5.108;2023-07-20T05:53:15;3.15;;;0.88;;
69912;SDS011;57198;52.082;5.108;2023-07-20T05:55:42;2.55;;;1.08;;
69912;SDS011;57198;52.082;5.108;2023-07-20T05:58:10;1.00;;;1.00;;
69912;SDS011;57198;52.082;5.108;2023-07-20T06:00:37;1.63;;;1.13;;
69912;SDS011;57198;52.082;5.108;2023-07-20T06:03:04;0.90;;;0.80;;
69912;SDS011;57198;52.082;5.108;2023-07-20T06:05:32;2.28;;;0.95;;
69912;SDS011;57198;52.082;5.108;2023-07-20T06:07:59;2.28;;;1.00;;
69912;SDS011;57198;52.082;5.108;2023-07-20T06:10:27;1.67;;;0.80;;
69912;SDS011;57198;52.082;5.108;2023-07-20T06:12:55;1.40;;;0.85;;
69912;SDS011;57198;52.082;5.108;2023-07-20T06:15:26;1.33;;;0.70;;
69912;SDS011;57198;52.082;5.108;2023-07-20T06:17:54;0.85;;;0.70;;
69912;SDS011;57198;52.082;5.108;2023-07-20T06:20:24;3.22;;;1.08;;
69912;SDS011;57198;52.082;5.108;2023-07-20T06:22:52;2.20;;;0.75;;
69912;SDS011;57198;52.082;5.108;2023-07-20T06:25:20;1.67;;;0.95;;
69912;SDS011;57198;52.082;5.108;2023-07-20T06:27:48;1.20;;;0.80;;
69912;SDS011;57198;52.082;5.108;2023-07-20T06:30:18;1.17;;;1.17;;
69912;SDS011;57198;52.082;5.108;2023-07-20T06:32:45;1.83;;;0.70;;
69912;SDS011;57198;52.082;5.108;2023-07-20T06:35:13;2.35;;;0.80;;
69912;SDS011;57198;52.082;5.108;2023-07-20T06:37:40;1.38;;;0.88;;
69912;SDS011;57198;52.082;5.108;2023-07-20T06:40:08;2.20;;;0.80;;
69912;SDS011;57198;52.082;5.108;2023-07-20T06:42:38;1.08;;;0.80;;
69912;SDS011;57198;52.082;5.108;2023-07-20T06:45:08;1.25;;;0.70;;
69912;SDS011;57198;52.082;5.108;2023-07-20T06:47:39;2.05;;;1.00;;
69912;SDS011;57198;52.082;5.108;2023-07-20T06:50:07;1.73;;;1.00;;
69912;SDS011;57198;52.082;5.108;2023-07-20T06:52:34;3.20;;;0.90;;
69912;SDS011;57198;52.082;5.108;2023-07-20T06:55:01;1.02;;;0.80;;
69912;SDS011;57198;52.082;5.108;2023-07-20T06:57:31;0.80;;;0.63;;
69912;SDS011;57198;52.082;5.108;2023-07-20T06:59:59;2.58;;;1.40;;
69912;SDS011;57198;52.082;5.108;2023-07-20T07:02:26;1.30;;;0.90;;
69912;SDS011;57198;52.082;5.108;2023-07-20T07:04:54;1.53;;;0.80;;
69912;SDS011;57198;52.082;5.108;2023-07-20T07:07:24;0.80;;;0.60;;
69912;SDS011;57198;52.082;5.108;2023-07-20T07:09:53;3.15;;;0.70;;
69912;SDS011;57198;52.082;5.108;2023-07-20T07:12:20;1.42;;;1.08;;
69912;SDS011;57198;52.082;5.108;2023-07-20T07:14:48;1.50;;;1.17;;
69912;SDS011;57198;52.082;5.108;2023-07-20T07:17:15;0.83;;;0.70;;
69912;SDS011;57198;52.082;5.108;2023-07-20T07:19:45;1.17;;;0.90;;
69912;SDS011;57198;52.082;5.108;2023-07-20T07:22:15;1.38;;;1.17;;
69912;SDS011;57198;52.082;5.108;2023-07-20T07:24:42;2.10;;;1.90;;
69912;SDS011;57198;52.082;5.108;2023-07-20T07:27:10;1.52;;;1.40;;
69912;SDS011;57198;52.082;5.108;2023-07-20T07:29:37;2.67;;;1.10;;
69912;SDS011;57198;52.082;5.108;2023-07-20T07:32:05;2.10;;;1.88;;
69912;SDS011;57198;52.082;5.108;2023-07-20T07:34:32;2.75;;;1.30;;
69912;SDS011;57198;52.082;5.108;2023-07-20T07:37:01;1.70;;;1.60;;
69912;SDS011;57198;52.082;5.108;2023-07-20T07:39:28;2.78;;;2.03;;
69912;SDS011;57198;52.082;5.108;2023-07-20T07:41:59;0.70;;;0.70;;
69912;SDS011;57198;52.082;5.108;2023-07-20T07:44:26;1.25;;;0.70;;
69912;SDS011;57198;52.082;5.108;2023-07-20T07:46:54;2.25;;;0.98;;
69912;SDS011;57198;52.082;5.108;2023-07-20T07:49:21;1.85;;;1.40;;
69912;SDS011;57198;52.082;5.108;2023-07-20T07:51:49;0.85;;;0.75;;
69912;SDS011;57198;52.082;5.108;2023-07-20T07:54:16;1.10;;;0.73;;
69912;SDS011;57198;52.082;5.108;2023-07-20T07:56:44;1.05;;;1.02;;
69912;SDS011;57198;52.082;5.108;2023-07-20T07:59:11;0.93;;;0.80;;
69912;SDS011;57198;52.082;5.108;2023-07-20T08:01:39;0.88;;;0.60;;
69912;SDS011;57198;52.082;5.108;2023-07-20T08:04:06;1.55;;;1.42;;
69912;SDS011;57198;52.082;5.108;2023-07-20T08:06:34;0.93;;;0.80;;
69912;SDS011;57198;52.082;5.108;2023-07-20T08:09:02;3.70;;;1.02;;
69912;SDS011;57198;52.082;5.108;2023-07-20T08:11:29;1.33;;;1.00;;
69912;SDS011;57198;52.082;5.108;2023-07-20T08:13:59;0.90;;;0.90;;
69912;SDS011;57198;52.082;5.108;2023-07-20T08:16:27;0.80;;;0.80;;
69912;SDS011;57198;52.082;5.108;2023-07-20T08:18:55;1.97;;;1.30;;
69912;SDS011;57198;52.082;5.108;2023-07-20T08:21:23;1.50;;;1.40;;
69912;SDS011;57198;52.082;5.108;2023-07-20T08:23:50;1.33;;;1.23;;
69912;SDS011;57198;52.082;5.108;2023-07-20T08:26:17;0.70;;;0.70;;
69912;SDS011;57198;52.082;5.108;2023-07-20T08:28:45;0.95;;;0.88;;
69912;SDS011;57198;52.082;5.108;2023-07-20T08:31:14;1.30;;;1.20;;
69912;SDS011;57198;52.082;5.108;2023-07-20T08:33:42;4.68;;;0.90;;
69912;SDS011;57198;52.082;5.108;2023-07-20T08:36:09;1.40;;;1.30;;
69912;SDS011;57198;52.082;5.108;2023-07-20T08:38:37;0.88;;;0.85;;
69912;SDS011;57198;52.082;5.108;2023-07-20T08:41:05;3.13;;;1.00;;
69912;SDS011;57198;52.082;5.108;2023-07-20T08:43:32;2.90;;;1.50;;
69912;SDS011;57198;52.082;5.108;2023-07-20T08:46:00;1.48;;;0.63;;
69912;SDS011;57198;52.082;5.108;2023-07-20T08:48:28;1.50;;;0.73;;
69912;SDS011;57198;52.082;5.108;2023-07-20T08:50:57;0.98;;;0.50;;
69912;SDS011;57198;52.082;5.108;2023-07-20T08:53:27;2.13;;;1.00;;
69912;SDS011;57198;52.082;5.108;2023-07-20T08:55:55;1.07;;;0.60;;
69912;SDS011;57198;52.082;5.108;2023-07-20T08:58:23;1.20;;;0.70;;
69912;SDS011;57198;52.082;5.108;2023-07-20T09:00:52;1.05;;;0.80;;
69912;SDS011;57198;52.082;5.108;2023-07-20T09:03:20;3.42;;;1.23;;
69912;SDS011;57198;52.082;5.108;2023-07-20T09:05:47;0.93;;;0.93;;
69912;SDS011;57198;52.082;5.108;2023-07-20T09:08:15;0.83;;;0.73;;
69912;SDS011;57198;52.082;5.108;2023-07-20T09:10:42;1.55;;;0.98;;
69912;SDS011;57198;52.082;5.108;2023-07-20T09:13:13;2.67;;;0.98;;
69912;SDS011;57198;52.082;5.108;2023-07-20T09:15:49;2.25;;;0.82;;
69912;SDS011;57198;52.082;5.108;2023-07-20T09:18:38;1.67;;;1.10;;
69912;SDS011;57198;52.082;5.108;2023-07-20T09:21:05;2.17;;;0.83;;
69912;SDS011;57198;52.082;5.108;2023-07-20T09:23:34;1.15;;;0.60;;
69912;SDS011;57198;52.082;5.108;2023-07-20T09:26:11;1.27;;;0.70;;
69912;SDS011;57198;52.082;5.108;2023-07-20T09:28:42;1.73;;;0.90;;
69912;SDS011;57198;52.082;5.108;2023-07-20T09:31:20;0.75;;;0.63;;
69912;SDS011;57198;52.082;5.108;2023-07-20T09:33:48;1.00;;;1.00;;
69912;SDS011;57198;52.082;5.108;2023-07-20T09:36:18;0.80;;;0.50;;
69912;SDS011;57198;52.082;5.108;2023-07-20T09:39:06;0.70;;;0.70;;
69912;SDS011;57198;52.082;5.108;2023-07-20T09:41:40;0.70;;;0.70;;
69912;SDS011;57198;52.082;5.108;2023-07-20T09:44:12;0.90;;;0.90;;
69912;SDS011;57198;52.082;5.108;2023-07-20T09:46:46;1.13;;;0.50;;
69912;SDS011;57198;52.082;5.108;2023-07-20T09:49:17;0.60;;;0.60;;
69912;SDS011;57198;52.082;5.108;2023-07-20T09:51:47;0.90;;;0.90;;
69912;SDS011;57198;52.082;5.108;2023-07-20T09:54:16;1.10;;;0.63;;
69912;SDS011;57198;52.082;5.108;2023-07-20T09:56:44;0.73;;;0.73;;
69912;SDS011;57198;52.082;5.108;2023-07-20T09:59:13;1.63;;;0.70;;
69912;SDS011;57198;52.082;5.108;2023-07-20T10:01:41;0.47;;;0.47;;
69912;SDS011;57198;52.082;5.108;2023-07-20T10:04:10;0.63;;;0.63;;
69912;SDS011;57198;52.082;5.108;2023-07-20T10:06:39;2.05;;;0.70;;
69912;SDS011;57198;52.082;5.108;2023-07-20T10:09:10;0.70;;;0.70;;
69912;SDS011;57198;52.082;5.108;2023-07-20T10:11:37;1.00;;;0.50;;
69912;SDS011;57198;52.082;5.108;2023-07-20T10:14:08;1.75;;;0.80;;
69912;SDS011;57198;52.082;5.108;2023-07-20T10:16:46;0.85;;;0.80;;
69912;SDS011;57198;52.082;5.108;2023-07-20T10:19:34;1.77;;;0.60;;
69912;SDS011;57198;52.082;5.108;2023-07-20T10:22:19;0.95;;;0.80;;
69912;SDS011;57198;52.082;5.108;2023-07-20T10:24:49;1.30;;;0.70;;
69912;SDS011;57198;52.082;5.108;2023-07-20T10:27:20;0.70;;;0.60;;
69912;SDS011;57198;52.082;5.108;2023-07-20T10:29:48;0.93;;;0.70;;
69912;SDS011;57198;52.082;5.108;2023-07-20T10:32:15;2.92;;;0.70;;
69912;SDS011;57198;52.082;5.108;2023-07-20T10:34:43;1.25;;;0.90;;
69912;SDS011;57198;52.082;5.108;2023-07-20T10:42:49;0.85;;;0.80;;
69912;SDS011;57198;52.082;5.108;2023-07-20T10:45:19;0.85;;;0.70;;
69912;SDS011;57198;52.082;5.108;2023-07-20T10:47:46;1.25;;;0.50;;
69912;SDS011;57198;52.082;5.108;2023-07-20T10:50:17;1.47;;;0.70;;
69912;SDS011;57198;52.082;5.108;2023-07-20T10:53:03;0.70;;;0.70;;
69912;SDS011;57198;52.082;5.108;2023-07-20T10:55:32;0.70;;;0.70;;
69912;SDS011;57198;52.082;5.108;2023-07-20T10:58:11;1.88;;;0.90;;
69912;SDS011;57198;52.082;5.108;2023-07-20T11:03:37;1.17;;;0.70;;
69912;SDS011;57198;52.082;5.108;2023-07-20T11:06:39;0.77;;;0.60;;
69912;SDS011;57198;52.082;5.108;2023-07-20T11:11:34;0.95;;;0.80;;
69912;SDS011;57198;52.082;5.108;2023-07-20T11:14:03;0.80;;;0.60;;
69912;SDS011;57198;52.082;5.108;2023-07-20T11:16:43;0.73;;;0.60;;
69912;SDS011;57198;52.082;5.108;2023-07-20T11:19:16;0.98;;;0.68;;
69912;SDS011;57198;52.082;5.108;2023-07-20T11:21:52;0.93;;;0.80;;
69912;SDS011;57198;52.082;5.108;2023-07-20T11:24:29;1.33;;;0.60;;
69912;SDS011;57198;52.082;5.108;2023-07-20T11:26:56;2.13;;;0.60;;
69912;SDS011;57198;52.082;5.108;2023-07-20T11:29:24;0.80;;;0.80;;
69912;SDS011;57198;52.082;5.108;2023-07-20T11:31:58;0.80;;;0.80;;
69912;SDS011;57198;52.082;5.108;2023-07-20T11:34:26;1.77;;;0.90;;
69912;SDS011;57198;52.082;5.108;2023-07-20T11:36:54;1.75;;;0.70;;
69912;SDS011;57198;52.082;5.108;2023-07-20T11:39:24;1.05;;;0.85;;
69912;SDS011;57198;52.082;5.108;2023-07-20T11:41:53;2.10;;;0.60;;
69912;SDS011;57198;52.082;5.108;2023-07-20T11:44:21;1.23;;;0.50;;
69912;SDS011;57198;52.082;5.108;2023-07-20T11:49:30;1.08;;;0.70;;
69912;SDS011;57198;52.082;5.108;2023-07-20T11:52:01;0.85;;;0.85;;
69912;SDS011;57198;52.082;5.108;2023-07-20T11:54:28;0.80;;;0.80;;
69912;SDS011;57198;52.082;5.108;2023-07-20T11:56:56;1.23;;;1.13;;
69912;SDS011;57198;52.082;5.108;2023-07-20T11:59:23;2.85;;;1.70;;
69912;SDS011;57198;52.082;5.108;2023-07-20T12:01:51;1.70;;;0.80;;
69912;SDS011;57198;52.082;5.108;2023-07-20T12:04:22;1.33;;;1.08;;
69912;SDS011;57198;52.082;5.108;2023-07-20T12:06:49;1.67;;;0.70;;
69912;SDS011;57198;52.082;5.108;2023-07-20T12:09:17;1.13;;;1.00;;
69912;SDS011;57198;52.082;5.108;2023-07-20T12:11:44;1.83;;;1.00;;
69912;SDS011;57198;52.082;5.108;2023-07-20T12:14:12;2.67;;;0.90;;
69912;SDS011;57198;52.082;5.108;2023-07-20T12:16:43;2.20;;;0.73;;
69912;SDS011;57198;52.082;5.108;2023-07-20T12:19:12;1.63;;;0.70;;
69912;SDS011;57198;52.082;5.108;2023-07-20T12:21:40;1.15;;;0.88;;
69912;SDS011;57198;52.082;5.108;2023-07-20T12:24:10;1.50;;;0.68;;
69912;SDS011;57198;52.082;5.108;2023-07-20T12:26:37;1.08;;;0.65;;
69912;SDS011;57198;52.082;5.108;2023-07-20T12:29:05;0.85;;;0.65;;
69912;SDS011;57198;52.082;5.108;2023-07-20T12:31:33;0.57;;;0.57;;
69912;SDS011;57198;52.082;5.108;2023-07-20T12:34:02;0.68;;;0.60;;
69912;SDS011;57198;52.082;5.108;2023-07-20T12:36:30;1.67;;;0.93;;
69912;SDS011;57198;52.082;5.108;2023-07-20T12:38:58;0.85;;;0.60;;
69912;SDS011;57198;52.082;5.108;2023-07-20T12:41:25;1.13;;;0.90;;
69912;SDS011;57198;52.082;5.108;2023-07-20T12:43:53;1.43;;;0.70;;
69912;SDS011;57198;52.082;5.108;2023-07-20T12:46:20;3.08;;;0.90;;
69912;SDS011;57198;52.082;5.108;2023-07-20T12:48:49;3.08;;;0.98;;
69912;SDS011;57198;52.082;5.108;2023-07-20T12:51:16;2.05;;;0.90;;
69912;SDS011;57198;52.082;5.108;2023-07-20T12:53:44;0.80;;;0.80;;
69912;SDS011;57198;52.082;5.108;2023-07-20T12:56:12;0.90;;;0.80;;
69912;SDS011;57198;52.082;5.108;2023-07-20T12:58:42;0.95;;;0.77;;
69912;SDS011;57198;52.082;5.108;2023-07-20T13:01:09;2.17;;;0.60;;
69912;SDS011;57198;52.082;5.108;2023-07-20T13:03:37;0.98;;;0.60;;
69912;SDS011;57198;52.082;5.108;2023-07-20T13:06:24;1.05;;;0.93;;
69912;SDS011;57198;52.082;5.108;2023-07-20T13:08:54;1.90;;;0.90;;
69912;SDS011;57198;52.082;5.108;2023-07-20T13:11:23;2.70;;;0.70;;
69912;SDS011;57198;52.082;5.108;2023-07-20T13:13:51;0.80;;;0.80;;
69912;SDS011;57198;52.082;5.108;2023-07-20T13:16:18;0.82;;;0.70;;
69912;SDS011;57198;52.082;5.108;2023-07-20T13:18:45;2.08;;;0.88;;
69912;SDS011;57198;52.082;5.108;2023-07-20T13:21:13;1.60;;;0.90;;
69912;SDS011;57198;52.082;5.108;2023-07-20T13:23:41;2.80;;;0.80;;
69912;SDS011;57198;52.082;5.108;2023-07-20T13:26:08;0.95;;;0.80;;
69912;SDS011;57198;52.082;5.108;2023-07-20T13:28:36;2.85;;;0.80;;
69912;SDS011;57198;52.082;5.108;2023-07-20T13:31:03;1.02;;;0.75;;
69912;SDS011;57198;52.082;5.108;2023-07-20T13:33:31;2.33;;;0.90;;
69912;SDS011;57198;52.082;5.108;2023-07-20T13:36:05;1.25;;;0.60;;
69912;SDS011;57198;52.082;5.108;2023-07-20T13:38:34;1.52;;;1.10;;
69912;SDS011;57198;52.082;5.108;2023-07-20T13:41:02;1.58;;;0.93;;
69912;SDS011;57198;52.082;5.108;2023-07-20T13:43:29;1.05;;;0.70;;
69912;SDS011;57198;52.082;5.108;2023-07-20T13:45:57;0.80;;;0.70;;
69912;SDS011;57198;52.082;5.108;2023-07-20T13:48:24;1.67;;;0.75;;
69912;SDS011;57198;52.082;5.108;2023-07-20T13:50:54;1.00;;;0.77;;
69912;SDS011;57198;52.082;5.108;2023-07-20T13:53:24;1.33;;;0.50;;
69912;SDS011;57198;52.082;5.108;2023-07-20T13:55:54;2.25;;;0.73;;
69912;SDS011;57198;52.082;5.108;2023-07-20T13:58:25;1.00;;;0.50;;
69912;SDS011;57198;52.082;5.108;2023-07-20T14:00:52;2.63;;;0.77;;
69912;SDS011;57198;52.082;5.108;2023-07-20T14:03:21;1.48;;;0.77;;
69912;SDS011;57198;52.082;5.108;2023-07-20T14:05:49;0.73;;;0.60;;
69912;SDS011;57198;52.082;5.108;2023-07-20T14:08:20;0.90;;;0.90;;
69912;SDS011;57198;52.082;5.108;2023-07-20T14:10:47;1.80;;;1.00;;
69912;SDS011;57198;52.082;5.108;2023-07-20T14:13:18;1.33;;;0.70;;
69912;SDS011;57198;52.082;5.108;2023-07-20T14:15:51;2.25;;;0.82;;
69912;SDS011;57198;52.082;5.108;2023-07-20T14:18:18;1.40;;;0.70;;
69912;SDS011;57198;52.082;5.108;2023-07-20T14:20:46;0.90;;;0.68;;
69912;SDS011;57198;52.082;5.108;2023-07-20T14:23:13;0.90;;;0.63;;
69912;SDS011;57198;52.082;5.108;2023-07-20T14:25:40;0.60;;;0.60;;
69912;SDS011;57198;52.082;5.108;2023-07-20T14:28:08;1.20;;;0.88;;
69912;SDS011;57198;52.082;5.108;2023-07-20T14:30:35;1.48;;;0.70;;
69912;SDS011;57198;52.082;5.108;2023-07-20T14:33:02;1.40;;;1.10;;
69912;SDS011;57198;52.082;5.108;2023-07-20T14:35:30;1.10;;;0.80;;
69912;SDS011;57198;52.082;5.108;2023-07-20T14:37:57;0.73;;;0.70;;
69912;SDS011;57198;52.082;5.108;2023-07-20T14:40:25;0.77;;;0.70;;
69912;SDS011;57198;52.082;5.108;2023-07-20T14:42:52;1.08;;;0.60;;
69912;SDS011;57198;52.082;5.108;2023-07-20T14:45:20;1.23;;;0.70;;
69912;SDS011;57198;52.082;5.108;2023-07-20T14:47:47;2.13;;;0.70;;
69912;SDS011;57198;52.082;5.108;2023-07-20T14:50:20;3.30;;;0.73;;
69912;SDS011;57198;52.082;5.108;2023-07-20T14:52:48;0.73;;;0.73;;
69912;SDS011;57198;52.082;5.108;2023-07-20T14:55:15;0.60;;;0.60;;
69912;SDS011;57198;52.082;5.108;2023-07-20T14:57:43;1.92;;;0.60;;
69912;SDS011;57198;52.082;5.108;2023-07-20T15:00:11;1.70;;;0.60;;
69912;SDS011;57198;52.082;5.108;2023-07-20T15:02:38;1.08;;;0.70;;
69912;SDS011;57198;52.082;5.108;2023-07-20T15:05:09;1.48;;;0.60;;
69912;SDS011;57198;52.082;5.108;2023-07-20T15:07:37;1.02;;;0.57;;
69912;SDS011;57198;52.082;5.108;2023-07-20T15:10:05;0.60;;;0.60;;
69912;SDS011;57198;52.082;5.108;2023-07-20T15:12:32;1.43;;;0.80;;
69912;SDS011;57198;52.082;5.108;2023-07-20T15:17:31;1.60;;;0.68;;
69912;SDS011;57198;52.082;5.108;2023-07-20T15:19:58;0.73;;;0.50;;
69912;SDS011;57198;52.082;5.108;2023-07-20T15:22:25;0.85;;;0.65;;
69912;SDS011;57198;52.082;5.108;2023-07-20T15:24:53;2.57;;;0.70;;
69912;SDS011;57198;52.082;5.108;2023-07-20T15:27:21;0.70;;;0.40;;